DEWDEER PARK
METARs for airports near DEW, sorted by distance:
N 0 nm 2210' KDEW 060653Z 19006KT 7SM OVC003 01/01 A2999
S 17 nm 1956' KSFF 060653Z 00000KT 2SM BR OVC003 03/02 A3001
S 21 nm 2385' KGEG 060653Z 21007KT 1/4SM FG VV002 02/01 A2999
SW 23 nm 2462' KSKA 060555Z 00000KT 3/8SM FG VV002 01/01 A2996
SE 27 nm 2320' KCOE 060556Z 20005KT 1 3/4SM BR OVC002 02/01 A2997
NE 40 nm 2131' KSZT 060635Z 28010G15KT 10SM SCT014 SCT032 OVC090 02/01 A2994
S 74 nm 2566' KPUW 060653Z 26010G18KT 10SM BKN012 OVC080 03/01 A3002
W 88 nm 1304' KOMK 060653Z 00000KT 8SM FEW021 M02/M03 A3003
SW 89 nm 1188' KMWH 060652Z 35003KT 1/4SM FG VV001 00/M01 A3003
E 89 nm 2467' KTHM 060555Z 00000KT 10SM 02/01 A2996
SW 93 nm 1276' KEPH 060653Z 07003KT 1/2SM FZFG VV001 M01/M01 A3002
S 97 nm 1442' KLWS 060556Z 00000KT 10SM OVC046 06/02 A3002
TAFs for airports near DEW, sorted by distance:
S 17 nm 1956' KSFF TAF KSFF 060538Z 0606/0706 VRB03KT 3SM BR OVC004
  FM060900 24004KT 4SM BR OVC010
  FM061000 24004KT 2SM BR OVC009
  FM062000 21010KT P6SM BKN009
  FM070000 22008KT 6SM HZ BR OVC015
S 21 nm 2385' KGEG TAF KGEG 060538Z 0606/0706 22005KT 1/2SM FG OVC002
  FM060900 22007KT 1SM BR OVC004
  FM061900 23007KT 1SM BR OVC006
  FM062100 22010KT P6SM BKN007
  FM070200 21010KT 2SM BR OVC007
SW 23 nm 2462' KSKA TAF KSKA 060300Z 0603/0709 23009KT 0800 FG OVC002 QNH2987INS
  BECMG 0620/0622 21012KT 3200 BR BKN005 QNH3024INS
  BECMG 0703/0705 20010G15KT 0800 FG VV002 QNH3017INS TX04/0622Z TNM01/0616Z
SE 27 nm 2320' KCOE TAF
  AMD KCOE 060605Z 0606/0706 20005KT 1 1/2SM BR OVC002
  FM061100 22005KT 3SM BR OVC004
  FM062100 22008KT P6SM BKN007
  FM070100 21006KT 4SM BR OVC007
S 74 nm 2566' KPUW TAF KPUW 060538Z 0606/0706 26011G19KT P6SM -RA FEW010 BKN040 OVC090
  FM060800 25015G20KT P6SM BKN009 OVC020
  FM062000 24015G20KT P6SM SCT012 BKN020
SW 89 nm 1188' KMWH TAF KMWH 060538Z 0606/0706 14004KT P6SM SKC
  FM062100 20010KT P6SM BKN120
  FM070000 21006KT P6SM BKN250
S 97 nm 1442' KLWS TAF KLWS 060538Z 0606/0706 19005KT P6SM -RA BKN050 OVC090
  FM060800 22010G20KT P6SM OVC025
  FM061000 22010G20KT P6SM OVC050
  FM070300 19008KT P6SM OVC100

Shortcut to this page: http://wxbay.com.

Data may contain errors.